sensor_id;sensor_type;location;lat;lon;timestamp;pressure;altitude;pressure_sealevel;temperature;humidity
41513;BME280;27244;59.940;30.280;2023-04-10T00:02:14;102650.59;;;24.44;19.39
41513;BME280;27244;59.940;30.280;2023-04-10T00:04:42;102642.53;;;24.42;19.49
41513;BME280;27244;59.940;30.280;2023-04-10T00:07:09;102657.44;;;24.43;19.63
41513;BME280;27244;59.940;30.280;2023-04-10T00:09:37;102656.22;;;24.44;19.46
41513;BME280;27244;59.940;30.280;2023-04-10T00:12:04;102651.41;;;24.37;19.50
41513;BME280;27244;59.940;30.280;2023-04-10T00:14:31;102654.22;;;24.41;19.61
41513;BME280;27244;59.940;30.280;2023-04-10T00:16:58;102657.03;;;24.41;19.48
41513;BME280;27244;59.940;30.280;2023-04-10T00:19:25;102661.47;;;24.42;19.46
41513;BME280;27244;59.940;30.280;2023-04-10T00:21:54;102643.34;;;24.36;19.67
41513;BME280;27244;59.940;30.280;2023-04-10T00:24:21;102652.22;;;24.41;19.67
41513;BME280;27244;59.940;30.280;2023-04-10T00:26:48;102647.34;;;24.42;19.54
41513;BME280;27244;59.940;30.280;2023-04-10T00:29:15;102651.41;;;24.41;19.78
41513;BME280;27244;59.940;30.280;2023-04-10T00:31:42;102650.16;;;24.42;19.61
41513;BME280;27244;59.940;30.280;2023-04-10T00:34:09;102656.25;;;24.40;19.65
41513;BME280;27244;59.940;30.280;2023-04-10T00:36:36;102643.34;;;24.39;19.56
41513;BME280;27244;59.940;30.280;2023-04-10T00:39:04;102639.69;;;24.39;19.78
41513;BME280;27244;59.940;30.280;2023-04-10T00:41:32;102641.72;;;24.38;19.58
41513;BME280;27244;59.940;30.280;2023-04-10T00:43:59;102627.63;;;24.28;19.67
41513;BME280;27244;59.940;30.280;2023-04-10T00:46:26;102641.72;;;24.35;19.42
41513;BME280;27244;59.940;30.280;2023-04-10T00:48:54;102642.13;;;24.37;19.81
41513;BME280;27244;59.940;30.280;2023-04-10T00:51:22;102648.59;;;24.37;19.49
41513;BME280;27244;59.940;30.280;2023-04-10T00:53:49;102642.13;;;24.37;19.49
41513;BME280;27244;59.940;30.280;2023-04-10T00:56:19;102636.88;;;24.32;19.69
41513;BME280;27244;59.940;30.280;2023-04-10T00:58:47;102642.94;;;24.34;19.84
41513;BME280;27244;59.940;30.280;2023-04-10T01:01:14;102647.34;;;24.35;19.71
41513;BME280;27244;59.940;30.280;2023-04-10T01:03:42;102652.59;;;24.36;19.96
41513;BME280;27244;59.940;30.280;2023-04-10T01:06:16;102647.78;;;24.37;20.06
41513;BME280;27244;59.940;30.280;2023-04-10T01:08:52;102657.84;;;24.38;19.85
41513;BME280;27244;59.940;30.280;2023-04-10T01:11:29;102648.16;;;24.39;19.81
41513;BME280;27244;59.940;30.280;2023-04-10T01:14:11;102659.44;;;24.39;19.71
41513;BME280;27244;59.940;30.280;2023-04-10T01:16:46;102648.97;;;24.36;19.66
41513;BME280;27244;59.940;30.280;2023-04-10T01:19:25;102651.41;;;24.37;19.65
41513;BME280;27244;59.940;30.280;2023-04-10T01:22:01;102647.34;;;24.35;19.69
41513;BME280;27244;59.940;30.280;2023-04-10T01:24:49;102649.78;;;24.40;19.80
41513;BME280;27244;59.940;30.280;2023-04-10T01:27:35;102654.22;;;24.37;19.65
41513;BME280;27244;59.940;30.280;2023-04-10T01:30:11;102657.88;;;24.34;19.94
41513;BME280;27244;59.940;30.280;2023-04-10T01:32:40;102653.81;;;24.32;19.50
41513;BME280;27244;59.940;30.280;2023-04-10T01:35:10;102653.00;;;24.31;19.51
41513;BME280;27244;59.940;30.280;2023-04-10T01:37:41;102657.06;;;24.30;19.71
41513;BME280;27244;59.940;30.280;2023-04-10T01:40:14;102661.47;;;24.31;19.76
41513;BME280;27244;59.940;30.280;2023-04-10T01:42:45;102656.63;;;24.28;19.65
41513;BME280;27244;59.940;30.280;2023-04-10T01:45:17;102663.50;;;24.31;19.77
41513;BME280;27244;59.940;30.280;2023-04-10T01:47:48;102664.69;;;24.30;19.76
41513;BME280;27244;59.940;30.280;2023-04-10T01:50:16;102661.88;;;24.30;19.88
41513;BME280;27244;59.940;30.280;2023-04-10T01:52:45;102651.41;;;24.27;19.88
41513;BME280;27244;59.940;30.280;2023-04-10T01:55:19;102654.22;;;24.27;19.84
41513;BME280;27244;59.940;30.280;2023-04-10T01:57:53;102647.78;;;24.26;19.82
41513;BME280;27244;59.940;30.280;2023-04-10T02:00:23;102647.34;;;24.28;19.74
41513;BME280;27244;59.940;30.280;2023-04-10T02:02:50;102651.41;;;24.27;19.74
41513;BME280;27244;59.940;30.280;2023-04-10T02:05:18;102655.44;;;24.26;19.95
41513;BME280;27244;59.940;30.280;2023-04-10T02:07:53;102646.56;;;24.24;19.64
41513;BME280;27244;59.940;30.280;2023-04-10T02:10:26;102646.56;;;24.27;19.82
41513;BME280;27244;59.940;30.280;2023-04-10T02:12:59;102657.06;;;24.27;19.90
41513;BME280;27244;59.940;30.280;2023-04-10T02:15:30;102652.19;;;24.27;19.82
41513;BME280;27244;59.940;30.280;2023-04-10T02:17:58;102650.19;;;24.28;19.80
41513;BME280;27244;59.940;30.280;2023-04-10T02:20:26;102642.94;;;24.23;19.88
41513;BME280;27244;59.940;30.280;2023-04-10T02:22:53;102644.53;;;24.24;19.89
41513;BME280;27244;59.940;30.280;2023-04-10T02:25:21;102649.38;;;24.24;19.84
41513;BME280;27244;59.940;30.280;2023-04-10T02:27:48;102654.63;;;24.25;19.65
41513;BME280;27244;59.940;30.280;2023-04-10T02:30:15;102657.81;;;24.24;19.80
41513;BME280;27244;59.940;30.280;2023-04-10T02:32:44;102649.78;;;24.22;19.88
41513;BME280;27244;59.940;30.280;2023-04-10T02:35:11;102651.00;;;24.25;19.93
41513;BME280;27244;59.940;30.280;2023-04-10T02:37:38;102649.38;;;24.24;20.19
41513;BME280;27244;59.940;30.280;2023-04-10T02:40:07;102648.97;;;24.22;19.97
41513;BME280;27244;59.940;30.280;2023-04-10T02:42:44;102651.81;;;24.18;20.21
41513;BME280;27244;59.940;30.280;2023-04-10T02:45:12;102638.47;;;24.12;20.16
41513;BME280;27244;59.940;30.280;2023-04-10T02:47:41;102650.59;;;24.19;20.22
41513;BME280;27244;59.940;30.280;2023-04-10T02:50:10;102660.25;;;24.22;20.01
41513;BME280;27244;59.940;30.280;2023-04-10T02:52:40;102653.00;;;24.21;20.01
41513;BME280;27244;59.940;30.280;2023-04-10T02:55:08;102657.06;;;24.20;20.04
41513;BME280;27244;59.940;30.280;2023-04-10T02:57:36;102657.06;;;24.20;19.97
41513;BME280;27244;59.940;30.280;2023-04-10T03:00:04;102658.63;;;24.21;20.12
41513;BME280;27244;59.940;30.280;2023-04-10T03:02:51;102656.25;;;24.19;19.97
41513;BME280;27244;59.940;30.280;2023-04-10T03:05:21;102654.22;;;24.20;20.10
41513;BME280;27244;59.940;30.280;2023-04-10T03:07:48;102660.66;;;24.20;20.01
41513;BME280;27244;59.940;30.280;2023-04-10T03:10:15;102653.81;;;24.14;20.16
41513;BME280;27244;59.940;30.280;2023-04-10T03:12:42;102670.72;;;24.18;20.17
41513;BME280;27244;59.940;30.280;2023-04-10T03:15:10;102669.53;;;24.19;20.20
41513;BME280;27244;59.940;30.280;2023-04-10T03:17:37;102667.53;;;24.19;20.07
41513;BME280;27244;59.940;30.280;2023-04-10T03:20:07;102665.91;;;24.18;20.13
41513;BME280;27244;59.940;30.280;2023-04-10T03:22:36;102664.69;;;24.19;20.02
41513;BME280;27244;59.940;30.280;2023-04-10T03:25:03;102664.69;;;24.16;20.03
41513;BME280;27244;59.940;30.280;2023-04-10T03:27:30;102665.09;;;24.18;20.13
41513;BME280;27244;59.940;30.280;2023-04-10T03:29:59;102664.28;;;24.17;20.20
41513;BME280;27244;59.940;30.280;2023-04-10T03:32:27;102650.56;;;24.12;20.03
41513;BME280;27244;59.940;30.280;2023-04-10T03:34:57;102663.47;;;24.17;20.04
41513;BME280;27244;59.940;30.280;2023-04-10T03:37:24;102661.88;;;24.16;20.03
41513;BME280;27244;59.940;30.280;2023-04-10T03:39:53;102657.06;;;24.16;19.97
41513;BME280;27244;59.940;30.280;2023-04-10T03:42:20;102662.69;;;24.16;19.95
41513;BME280;27244;59.940;30.280;2023-04-10T03:44:47;102661.06;;;24.15;20.04
41513;BME280;27244;59.940;30.280;2023-04-10T03:47:14;102651.75;;;24.11;20.13
41513;BME280;27244;59.940;30.280;2023-04-10T03:49:47;102661.47;;;24.17;20.08
41513;BME280;27244;59.940;30.280;2023-04-10T03:52:14;102666.72;;;24.15;20.14
41513;BME280;27244;59.940;30.280;2023-04-10T03:54:41;102654.63;;;24.15;20.00
41513;BME280;27244;59.940;30.280;2023-04-10T03:57:18;102663.47;;;24.17;19.91
41513;BME280;27244;59.940;30.280;2023-04-10T03:59:46;102655.81;;;24.14;20.08
41513;BME280;27244;59.940;30.280;2023-04-10T04:02:14;102653.38;;;24.12;20.00
41513;BME280;27244;59.940;30.280;2023-04-10T04:04:42;102652.56;;;24.12;19.85
41513;BME280;27244;59.940;30.280;2023-04-10T04:07:19;102651.38;;;24.13;20.58
41513;BME280;27244;59.940;30.280;2023-04-10T04:09:57;102654.63;;;24.15;20.61
41513;BME280;27244;59.940;30.280;2023-04-10T04:12:52;102662.69;;;24.20;20.86
41513;BME280;27244;59.940;30.280;2023-04-10T04:15:43;102653.41;;;24.19;20.84
41513;BME280;27244;59.940;30.280;2023-04-10T04:18:22;102655.00;;;24.24;21.08
41513;BME280;27244;59.940;30.280;2023-04-10T04:21:09;102653.41;;;24.23;21.50
41513;BME280;27244;59.940;30.280;2023-04-10T04:23:54;102666.72;;;24.33;21.58
41513;BME280;27244;59.940;30.280;2023-04-10T04:26:30;102641.72;;;24.28;21.61
41513;BME280;27244;59.940;30.280;2023-04-10T04:29:22;102658.25;;;24.40;21.72
41513;BME280;27244;59.940;30.280;2023-04-10T04:32:10;102663.50;;;24.41;21.99
41513;BME280;27244;59.940;30.280;2023-04-10T04:34:55;102663.88;;;24.47;22.09
41513;BME280;27244;59.940;30.280;2023-04-10T04:37:41;102656.22;;;24.47;22.25
41513;BME280;27244;59.940;30.280;2023-04-10T04:40:26;102664.69;;;24.51;22.24
41513;BME280;27244;59.940;30.280;2023-04-10T04:43:02;102663.50;;;24.52;22.34
41513;BME280;27244;59.940;30.280;2023-04-10T04:45:55;102674.78;;;24.56;22.37
41513;BME280;27244;59.940;30.280;2023-04-10T04:48:57;102675.59;;;24.56;22.74
41513;BME280;27244;59.940;30.280;2023-04-10T04:51:46;102657.03;;;24.52;22.62
41513;BME280;27244;59.940;30.280;2023-04-10T04:54:47;102667.13;;;24.56;22.62
41513;BME280;27244;59.940;30.280;2023-04-10T04:57:22;102657.03;;;24.55;22.76
41513;BME280;27244;59.940;30.280;2023-04-10T05:00:13;102669.53;;;24.54;23.18
41513;BME280;27244;59.940;30.280;2023-04-10T05:02:50;102668.31;;;24.66;22.60
41513;BME280;27244;59.940;30.280;2023-04-10T05:05:36;102672.34;;;24.40;24.36
41513;BME280;27244;59.940;30.280;2023-04-10T05:08:27;102665.09;;;24.39;24.38
41513;BME280;27244;59.940;30.280;2023-04-10T05:11:17;102665.09;;;24.32;25.19
41513;BME280;27244;59.940;30.280;2023-04-10T05:14:05;102670.34;;;24.37;25.84
41513;BME280;27244;59.940;30.280;2023-04-10T05:17:04;102664.69;;;24.44;24.30
41513;BME280;27244;59.940;30.280;2023-04-10T05:19:45;102661.06;;;24.50;24.15
41513;BME280;27244;59.940;30.280;2023-04-10T05:22:38;102661.88;;;24.51;24.23
41513;BME280;27244;59.940;30.280;2023-04-10T05:25:15;102662.25;;;24.53;24.29
41513;BME280;27244;59.940;30.280;2023-04-10T05:28:18;102665.06;;;24.53;24.32
41513;BME280;27244;59.940;30.280;2023-04-10T05:31:01;102659.44;;;24.57;24.21
41513;BME280;27244;59.940;30.280;2023-04-10T05:33:53;102664.28;;;24.56;24.38
41513;BME280;27244;59.940;30.280;2023-04-10T05:36:37;102666.69;;;24.58;24.24
41513;BME280;27244;59.940;30.280;2023-04-10T05:39:24;102662.66;;;24.59;24.44
41513;BME280;27244;59.940;30.280;2023-04-10T05:42:05;102661.84;;;24.58;24.30
41513;BME280;27244;59.940;30.280;2023-04-10T05:45:05;102665.88;;;24.57;24.31
41513;BME280;27244;59.940;30.280;2023-04-10T05:47:53;102669.13;;;24.59;24.25
41513;BME280;27244;59.940;30.280;2023-04-10T05:50:34;102658.66;;;24.60;24.34
41513;BME280;27244;59.940;30.280;2023-04-10T05:53:28;102666.69;;;24.61;24.46
41513;BME280;27244;59.940;30.280;2023-04-10T05:56:23;102657.84;;;24.59;24.83
41513;BME280;27244;59.940;30.280;2023-04-10T05:59:22;102664.28;;;24.63;24.69
41513;BME280;27244;59.940;30.280;2023-04-10T06:02:00;102670.72;;;24.64;24.91
41513;BME280;27244;59.940;30.280;2023-04-10T06:04:28;102663.88;;;24.65;25.04
41513;BME280;27244;59.940;30.280;2023-04-10T06:06:56;102672.75;;;24.67;25.12
41513;BME280;27244;59.940;30.280;2023-04-10T06:09:25;102663.06;;;24.64;25.12
41513;BME280;27244;59.940;30.280;2023-04-10T06:11:53;102675.94;;;24.69;25.10
41513;BME280;27244;59.940;30.280;2023-04-10T06:14:22;102674.75;;;24.70;25.15
41513;BME280;27244;59.940;30.280;2023-04-10T06:16:49;102673.94;;;24.69;25.21
41513;BME280;27244;59.940;30.280;2023-04-10T06:19:16;102679.97;;;24.71;25.42
41513;BME280;27244;59.940;30.280;2023-04-10T06:21:43;102665.88;;;24.64;25.31
41513;BME280;27244;59.940;30.280;2023-04-10T06:24:11;102677.16;;;24.71;25.31
41513;BME280;27244;59.940;30.280;2023-04-10T06:26:39;102681.22;;;24.70;25.33
41513;BME280;27244;59.940;30.280;2023-04-10T06:29:08;102682.41;;;24.73;25.38
41513;BME280;27244;59.940;30.280;2023-04-10T06:31:35;102686.03;;;24.73;25.63
41513;BME280;27244;59.940;30.280;2023-04-10T06:34:02;102684.84;;;24.74;25.53
41513;BME280;27244;59.940;30.280;2023-04-10T06:36:31;102679.56;;;24.76;25.79
41513;BME280;27244;59.940;30.280;2023-04-10T06:39:01;102679.56;;;24.76;25.64
41513;BME280;27244;59.940;30.280;2023-04-10T06:41:28;102669.09;;;24.73;25.76
41513;BME280;27244;59.940;30.280;2023-04-10T06:44:06;102682.41;;;24.80;25.71
41513;BME280;27244;59.940;30.280;2023-04-10T06:46:33;102675.53;;;24.81;25.88
41513;BME280;27244;59.940;30.280;2023-04-10T06:49:01;102677.13;;;24.78;25.82
41513;BME280;27244;59.940;30.280;2023-04-10T06:51:28;102679.56;;;24.80;25.99
41513;BME280;27244;59.940;30.280;2023-04-10T06:53:56;102678.38;;;24.84;25.82
41513;BME280;27244;59.940;30.280;2023-04-10T06:56:22;102679.59;;;24.83;25.89
41513;BME280;27244;59.940;30.280;2023-04-10T06:58:49;102676.78;;;24.83;25.75
41513;BME280;27244;59.940;30.280;2023-04-10T07:01:18;102678.78;;;24.86;25.69
41513;BME280;27244;59.940;30.280;2023-04-10T07:03:45;102675.56;;;24.88;26.10
41513;BME280;27244;59.940;30.280;2023-04-10T07:06:12;102674.75;;;24.87;25.91
41513;BME280;27244;59.940;30.280;2023-04-10T07:08:39;102670.72;;;24.88;25.91
41513;BME280;27244;59.940;30.280;2023-04-10T07:11:06;102673.53;;;24.88;25.85
41513;BME280;27244;59.940;30.280;2023-04-10T07:13:33;102676.38;;;24.85;26.88
41513;BME280;27244;59.940;30.280;2023-04-10T07:16:04;102671.13;;;24.83;28.02
41513;BME280;27244;59.940;30.280;2023-04-10T07:18:32;102683.59;;;24.93;28.43
41513;BME280;27244;59.940;30.280;2023-04-10T07:20:59;102677.16;;;24.89;27.29
41513;BME280;27244;59.940;30.280;2023-04-10T07:23:26;102667.47;;;24.93;27.15
41513;BME280;27244;59.940;30.280;2023-04-10T07:25:54;102669.09;;;24.91;27.11
41513;BME280;27244;59.940;30.280;2023-04-10T07:28:21;102675.13;;;24.89;26.80
41513;BME280;27244;59.940;30.280;2023-04-10T07:30:48;102678.75;;;24.93;26.74
41513;BME280;27244;59.940;30.280;2023-04-10T07:33:14;102670.69;;;24.95;26.80
41513;BME280;27244;59.940;30.280;2023-04-10T07:35:43;102669.09;;;24.94;26.90
41513;BME280;27244;59.940;30.280;2023-04-10T07:38:13;102677.53;;;24.98;26.71
41513;BME280;27244;59.940;30.280;2023-04-10T07:40:40;102673.53;;;24.95;26.55
41513;BME280;27244;59.940;30.280;2023-04-10T07:43:07;102675.94;;;24.97;26.80
41513;BME280;27244;59.940;30.280;2023-04-10T07:45:34;102673.91;;;24.97;26.62
41513;BME280;27244;59.940;30.280;2023-04-10T07:48:01;102669.88;;;24.98;26.62
41513;BME280;27244;59.940;30.280;2023-04-10T07:50:28;102671.91;;;24.98;26.75
41513;BME280;27244;59.940;30.280;2023-04-10T07:52:57;102675.09;;;25.00;26.56
41513;BME280;27244;59.940;30.280;2023-04-10T07:55:28;102664.22;;;24.98;26.56
41513;BME280;27244;59.940;30.280;2023-04-10T07:57:56;102663.00;;;24.96;26.67
41513;BME280;27244;59.940;30.280;2023-04-10T08:00:23;102671.50;;;25.00;26.41
41513;BME280;27244;59.940;30.280;2023-04-10T08:02:50;102663.44;;;24.98;26.59
41513;BME280;27244;59.940;30.280;2023-04-10T08:05:17;102673.09;;;25.01;26.41
41513;BME280;27244;59.940;30.280;2023-04-10T08:07:44;102662.63;;;24.97;26.48
41513;BME280;27244;59.940;30.280;2023-04-10T08:10:12;102663.81;;;25.04;26.51
41513;BME280;27244;59.940;30.280;2023-04-10T08:12:39;102674.31;;;25.03;26.62
41513;BME280;27244;59.940;30.280;2023-04-10T08:15:07;102663.03;;;25.03;26.50
41513;BME280;27244;59.940;30.280;2023-04-10T08:17:34;102663.41;;;25.02;26.46
41513;BME280;27244;59.940;30.280;2023-04-10T08:20:02;102652.94;;;25.02;26.45
41513;BME280;27244;59.940;30.280;2023-04-10T08:22:30;102658.16;;;25.04;26.52
41513;BME280;27244;59.940;30.280;2023-04-10T08:24:57;102648.91;;;25.00;26.69
41513;BME280;27244;59.940;30.280;2023-04-10T08:27:25;102656.13;;;25.04;26.63
41513;BME280;27244;59.940;30.280;2023-04-10T08:29:53;102641.66;;;24.98;26.72
41513;BME280;27244;59.940;30.280;2023-04-10T08:32:20;102651.31;;;25.05;26.81
41513;BME280;27244;59.940;30.280;2023-04-10T08:34:48;102653.31;;;25.04;26.71
41513;BME280;27244;59.940;30.280;2023-04-10T08:37:16;102642.47;;;24.99;26.60
41513;BME280;27244;59.940;30.280;2023-04-10T08:39:44;102656.13;;;25.04;26.84
41513;BME280;27244;59.940;30.280;2023-04-10T08:42:11;102640.44;;;25.00;26.50
41513;BME280;27244;59.940;30.280;2023-04-10T08:44:39;102647.28;;;25.06;26.51
41513;BME280;27244;59.940;30.280;2023-04-10T08:47:07;102644.84;;;25.04;26.71
41513;BME280;27244;59.940;30.280;2023-04-10T08:49:39;102644.03;;;25.04;26.42
41513;BME280;27244;59.940;30.280;2023-04-10T08:52:14;102634.34;;;25.05;26.63
41513;BME280;27244;59.940;30.280;2023-04-10T08:54:46;102635.16;;;25.05;26.44
41513;BME280;27244;59.940;30.280;2023-04-10T08:57:14;102634.38;;;24.97;26.51
41513;BME280;27244;59.940;30.280;2023-04-10T08:59:46;102640.78;;;25.16;26.22
41513;BME280;27244;59.940;30.280;2023-04-10T09:02:13;102630.34;;;25.02;26.80
41513;BME280;27244;59.940;30.280;2023-04-10T09:04:43;102631.53;;;25.01;26.69
41513;BME280;27244;59.940;30.280;2023-04-10T09:07:12;102629.94;;;24.96;26.92
41513;BME280;27244;59.940;30.280;2023-04-10T09:09:40;102631.56;;;24.97;27.01
41513;BME280;27244;59.940;30.280;2023-04-10T09:12:07;102628.75;;;24.97;27.15
41513;BME280;27244;59.940;30.280;2023-04-10T09:14:35;102618.66;;;24.93;27.00
41513;BME280;27244;59.940;30.280;2023-04-10T09:17:14;102627.09;;;25.00;26.85
41513;BME280;27244;59.940;30.280;2023-04-10T09:19:43;102620.66;;;24.96;27.13
41513;BME280;27244;59.940;30.280;2023-04-10T09:22:11;102629.53;;;24.98;26.96
41513;BME280;27244;59.940;30.280;2023-04-10T09:24:39;102619.88;;;24.95;27.28
41513;BME280;27244;59.940;30.280;2023-04-10T09:27:07;102621.47;;;24.96;27.22
41513;BME280;27244;59.940;30.280;2023-04-10T09:29:40;102622.28;;;25.01;27.27
41513;BME280;27244;59.940;30.280;2023-04-10T09:32:07;102628.34;;;24.99;27.62
41513;BME280;27244;59.940;30.280;2023-04-10T09:34:51;102608.56;;;24.99;26.97
41513;BME280;27244;59.940;30.280;2023-04-10T09:37:18;102614.63;;;24.97;27.58
41513;BME280;27244;59.940;30.280;2023-04-10T09:39:47;102606.97;;;24.94;27.65
41513;BME280;27244;59.940;30.280;2023-04-10T09:42:14;102604.53;;;24.96;27.83
41513;BME280;27244;59.940;30.280;2023-04-10T09:44:41;102597.34;;;24.85;27.70
41513;BME280;27244;59.940;30.280;2023-04-10T09:47:15;102608.16;;;25.01;27.47
41513;BME280;27244;59.940;30.280;2023-04-10T09:49:48;102604.50;;;25.00;27.56
41513;BME280;27244;59.940;30.280;2023-04-10T09:52:18;102607.75;;;24.98;28.00
41513;BME280;27244;59.940;30.280;2023-04-10T09:54:45;102603.31;;;24.97;28.02
41513;BME280;27244;59.940;30.280;2023-04-10T09:57:14;102608.56;;;24.99;28.47
41513;BME280;27244;59.940;30.280;2023-04-10T09:59:43;102600.91;;;25.00;28.36
41513;BME280;27244;59.940;30.280;2023-04-10T10:02:14;102602.13;;;24.98;28.34
41513;BME280;27244;59.940;30.280;2023-04-10T10:04:43;102593.22;;;25.00;28.38
41513;BME280;27244;59.940;30.280;2023-04-10T10:07:13;102585.19;;;24.98;28.46
41513;BME280;27244;59.940;30.280;2023-04-10T10:09:41;102586.38;;;25.01;28.45
41513;BME280;27244;59.940;30.280;2023-04-10T10:12:10;102588.38;;;25.01;28.66
41513;BME280;27244;59.940;30.280;2023-04-10T10:14:43;102587.16;;;25.05;28.38
41513;BME280;27244;59.940;30.280;2023-04-10T10:17:13;102576.28;;;25.00;28.44
41513;BME280;27244;59.940;30.280;2023-04-10T10:19:46;102577.50;;;25.03;28.63
41513;BME280;27244;59.940;30.280;2023-04-10T10:22:16;102584.34;;;25.05;28.63
41513;BME280;27244;59.940;30.280;2023-04-10T10:24:45;102569.84;;;25.00;28.52
41513;BME280;27244;59.940;30.280;2023-04-10T10:27:14;102577.47;;;25.06;28.57
41513;BME280;27244;59.940;30.280;2023-04-10T10:29:43;102570.63;;;25.04;28.70
41513;BME280;27244;59.940;30.280;2023-04-10T10:32:16;102560.94;;;25.05;28.65
41513;BME280;27244;59.940;30.280;2023-04-10T10:34:44;102564.97;;;25.04;28.78
41513;BME280;27244;59.940;30.280;2023-04-10T10:37:11;102572.66;;;25.07;29.09
41513;BME280;27244;59.940;30.280;2023-04-10T10:39:49;102569.81;;;25.10;28.82
41513;BME280;27244;59.940;30.280;2023-04-10T10:42:22;102566.56;;;25.08;28.86
41513;BME280;27244;59.940;30.280;2023-04-10T10:44:59;102557.28;;;25.08;28.50
41513;BME280;27244;59.940;30.280;2023-04-10T10:47:28;102559.28;;;25.11;28.81
41513;BME280;27244;59.940;30.280;2023-04-10T10:49:57;102561.72;;;25.09;29.31
41513;BME280;27244;59.940;30.280;2023-04-10T10:52:42;102555.25;;;25.15;29.62
41513;BME280;27244;59.940;30.280;2023-04-10T10:55:32;102549.19;;;25.17;28.93
41513;BME280;27244;59.940;30.280;2023-04-10T10:58:04;102539.97;;;25.06;29.39
41513;BME280;27244;59.940;30.280;2023-04-10T11:03:44;102536.69;;;25.11;29.42
41513;BME280;27244;59.940;30.280;2023-04-10T11:06:14;102535.13;;;25.10;29.37
41513;BME280;27244;59.940;30.280;2023-04-10T11:08:43;102549.59;;;25.12;29.25
41513;BME280;27244;59.940;30.280;2023-04-10T11:11:17;102541.13;;;25.12;29.57
41513;BME280;27244;59.940;30.280;2023-04-10T11:14:11;102533.84;;;25.18;29.22
41513;BME280;27244;59.940;30.280;2023-04-10T11:16:44;102532.28;;;25.13;29.56
41513;BME280;27244;59.940;30.280;2023-04-10T11:19:11;102522.19;;;25.12;29.61
41513;BME280;27244;59.940;30.280;2023-04-10T11:22:07;102518.09;;;25.20;29.10
41513;BME280;27244;59.940;30.280;2023-04-10T11:24:57;102515.28;;;25.20;28.98
41513;BME280;27244;59.940;30.280;2023-04-10T11:27:43;102517.28;;;25.20;28.95
41513;BME280;27244;59.940;30.280;2023-04-10T11:30:31;102507.63;;;25.17;29.12
41513;BME280;27244;59.940;30.280;2023-04-10T11:32:59;102507.22;;;25.15;29.12
41513;BME280;27244;59.940;30.280;2023-04-10T11:35:27;102511.25;;;25.18;29.13
41513;BME280;27244;59.940;30.280;2023-04-10T11:38:22;102491.06;;;25.19;29.10
41513;BME280;27244;59.940;30.280;2023-04-10T11:41:02;102490.72;;;25.14;29.04
41513;BME280;27244;59.940;30.280;2023-04-10T11:43:32;102489.88;;;25.17;29.12
41513;BME280;27244;59.940;30.280;2023-04-10T11:46:04;102491.50;;;25.14;29.06
41513;BME280;27244;59.940;30.280;2023-04-10T11:48:32;102482.63;;;25.16;29.12
41513;BME280;27244;59.940;30.280;2023-04-10T11:51:06;102490.25;;;25.22;28.99
41513;BME280;27244;59.940;30.280;2023-04-10T11:53:33;102482.59;;;25.19;29.13
41513;BME280;27244;59.940;30.280;2023-04-10T11:56:00;102476.97;;;25.16;29.15
41513;BME280;27244;59.940;30.280;2023-04-10T11:58:28;102480.19;;;25.18;29.30
41513;BME280;27244;59.940;30.280;2023-04-10T12:01:02;102487.00;;;25.24;29.02
41513;BME280;27244;59.940;30.280;2023-04-10T12:03:34;102477.34;;;25.18;28.97
41513;BME280;27244;59.940;30.280;2023-04-10T12:06:02;102476.13;;;25.22;29.03
41513;BME280;27244;59.940;30.280;2023-04-10T12:08:30;102470.91;;;25.21;28.98
41513;BME280;27244;59.940;30.280;2023-04-10T12:10:58;102472.50;;;25.18;29.03
41513;BME280;27244;59.940;30.280;2023-04-10T12:13:25;102474.53;;;25.21;29.12
41513;BME280;27244;59.940;30.280;2023-04-10T12:15:52;102477.34;;;25.21;28.88
41513;BME280;27244;59.940;30.280;2023-04-10T12:18:21;102475.31;;;25.22;29.13
41513;BME280;27244;59.940;30.280;2023-04-10T12:20:48;102469.28;;;25.20;28.84
41513;BME280;27244;59.940;30.280;2023-04-10T12:23:21;102466.47;;;25.20;28.71
41513;BME280;27244;59.940;30.280;2023-04-10T12:25:48;102453.53;;;25.19;28.89
41513;BME280;27244;59.940;30.280;2023-04-10T12:28:17;102467.66;;;25.22;28.89
41513;BME280;27244;59.940;30.280;2023-04-10T12:30:48;102463.22;;;25.25;28.76
41513;BME280;27244;59.940;30.280;2023-04-10T12:33:22;102459.97;;;25.23;28.64
41513;BME280;27244;59.940;30.280;2023-04-10T12:35:49;102454.75;;;25.21;28.87
41513;BME280;27244;59.940;30.280;2023-04-10T12:38:35;102456.72;;;25.28;28.75
41513;BME280;27244;59.940;30.280;2023-04-10T12:41:03;102454.75;;;25.21;28.79
41513;BME280;27244;59.940;30.280;2023-04-10T12:43:32;102451.94;;;25.21;28.91
41513;BME280;27244;59.940;30.280;2023-04-10T12:46:00;102442.69;;;25.17;29.01
41513;BME280;27244;59.940;30.280;2023-04-10T12:48:30;102447.50;;;25.20;28.85
41513;BME280;27244;59.940;30.280;2023-04-10T12:50:57;102447.50;;;25.20;28.90
41513;BME280;27244;59.940;30.280;2023-04-10T12:53:25;102434.97;;;25.18;28.77
41513;BME280;27244;59.940;30.280;2023-04-10T12:55:56;102434.56;;;25.23;28.61
41513;BME280;27244;59.940;30.280;2023-04-10T12:58:24;102422.91;;;25.17;28.68
41513;BME280;27244;59.940;30.280;2023-04-10T13:00:53;102429.34;;;25.18;28.68
41513;BME280;27244;59.940;30.280;2023-04-10T13:03:21;102437.41;;;25.19;28.67
41513;BME280;27244;59.940;30.280;2023-04-10T13:05:50;102433.34;;;25.24;28.84
41513;BME280;27244;59.940;30.280;2023-04-10T13:08:17;102425.28;;;25.22;28.64
41513;BME280;27244;59.940;30.280;2023-04-10T13:10:45;102424.06;;;25.23;28.89